Osceola, IN (46561)

7:07 AM EDT on August 31, 2015 (GMT -0400)
Heather Lake Subdivision | | Change Station
CLOSE
Current Station
Personal Weather Station
Location: Osceola, IN
Elevation: 741 ft
Nearby Weather Stations
Active Advisory: Dense Fog Advisory

Elev 741 ft 41.64 °N, 86.06 °W | Updated 48 seconds ago

Overcast
Overcast
60.0 °F
Feels Like 60.0 °F
N
0.0
Wind Variable Wind from NNW
Gusts 0.0 mph

Today
High -- | Low -- °F
--% Chance of Precip.
Yesterday
High -- | Low -- °F
Precip. -- in
7:09 AM 8:19 PM
Waning Gibbous, 96% visible
Pressure 30.05 in
Visibility 6.0 miles
Clouds Scattered Clouds 1700 ft
Mostly Cloudy 3900 ft
Dew Point 60 °F
Humidity 100%
Rainfall in
Snow Depth Not available.
UV 0 out of 12
Pollen 9.30 out of 12
Air Quality Not available.
Flu Activity Not available.
METAR KSBN 310954Z 00000KT 6SM BR SCT017 BKN039 17/16 A3005 RMK AO2 SLP174 T01670161 $
Pressure 30.05 in
Visibility 6.0 miles
Clouds Scattered Clouds 1700 ft
Mostly Cloudy 3900 ft
Dew Point 60 °F
Humidity 100%
Rainfall in
Snow Depth Not available.
UV 0 out of 12
Pollen 9.30 out of 12
Air Quality Not available.
Flu Activity Not available.
METAR KSBN 310954Z 00000KT 6SM BR SCT017 BKN039 17/16 A3005 RMK AO2 SLP174 T01670161 $

10-Day Weather Forecast

×

Almanac

Astronomy

Aug. 31, 2015 Rise Set
Actual Time
Civil Twilight
Nautical Twilight
Astronomical Twilight
Moon
Length of Visible Light
Length of Day
Tomorrow will be .
, % of the Moon is Illuminated

Today's Extremes

State Highs State Lows

Community

WunderPhotos

Upload Photos

1,851,217 photos uploaded!

WunderBlogs® & News

Nearby

Air Quality

  Air Quality AQ Index Pollutant
Not available.

Snow Depth

Station Depth Elevation

Earthquake Activity

City Distance Mag. Time & Date
Minimum magnitude displayed is 2.5.

Coastal Water Temperatures

Place Temperature

Stations

Nearby Weather Stations

Station Location Temp. Windchill Dew Point Humidity Wind Precip. Elev Updated Type
                   
Dense Fog Advisory
Statement as of 3:13 AM EDT on August 31, 2015

... Dense fog advisory remains in effect until 9 am EDT /8 am CDT/
this morning...

* hazardous weather... areas of dense fog with visibilities
reduced to a 1/4 mile or less will impact travel early this
morning.

* Impacts... travel will be difficult in areas of dense fog.

Precautionary/preparedness actions...

A dense fog advisory means visibilities will frequently be
reduced to less than one quarter mile. If driving... slow down...
use your headlights... and leave plenty of distance ahead of you.